createdAt,value
2023-02-14T00:00:57.768Z,2.50
2023-02-14T00:02:59.817Z,2.50
2023-02-14T00:05:01.636Z,2.50
2023-02-14T00:07:04.595Z,2.60
2023-02-14T00:09:07.548Z,2.60
2023-02-14T00:11:10.423Z,2.50
2023-02-14T00:13:12.178Z,2.60
2023-02-14T00:15:22.941Z,2.60
2023-02-14T00:17:24.704Z,2.60
2023-02-14T00:19:26.864Z,2.60
2023-02-14T00:21:28.667Z,2.60
2023-02-14T00:23:30.419Z,2.60
2023-02-14T00:25:33.959Z,2.60
2023-02-14T00:27:35.673Z,2.60
2023-02-14T00:29:37.375Z,2.60
2023-02-14T00:31:39.804Z,2.60
2023-02-14T00:33:41.687Z,2.60
2023-02-14T00:35:43.410Z,2.60
2023-02-14T00:37:47.911Z,2.70
2023-02-14T00:39:49.829Z,2.70
2023-02-14T00:41:51.715Z,2.60
2023-02-14T00:43:53.683Z,2.70
2023-02-14T00:45:55.450Z,2.70
2023-02-14T00:47:57.174Z,2.70
2023-02-14T00:50:02.879Z,2.70
2023-02-14T00:52:04.769Z,2.70
2023-02-14T00:54:06.567Z,2.70
2023-02-14T00:56:08.328Z,2.70
2023-02-14T00:58:10.081Z,2.70
2023-02-14T01:00:12.183Z,2.70
2023-02-14T01:02:13.984Z,2.80
2023-02-14T01:04:15.788Z,2.80
2023-02-14T01:06:17.611Z,2.80
2023-02-14T01:08:19.945Z,2.80
2023-02-14T01:10:21.720Z,2.80
2023-02-14T01:12:23.435Z,2.80
2023-02-14T01:14:25.146Z,2.80
2023-02-14T01:16:27.809Z,2.80
2023-02-14T01:18:29.520Z,2.80
2023-02-14T01:20:31.242Z,2.80
2023-02-14T01:22:39.258Z,2.90
2023-02-14T01:24:40.996Z,2.90
2023-02-14T01:26:42.736Z,2.90
2023-02-14T01:28:44.532Z,2.90
2023-02-14T01:30:46.302Z,2.90
2023-02-14T01:32:48.164Z,2.90
2023-02-14T01:34:50.021Z,2.90
2023-02-14T01:36:51.822Z,2.90
2023-02-14T01:38:56.396Z,2.90
2023-02-14T01:40:58.699Z,2.90
2023-02-14T01:43:00.622Z,2.90
2023-02-14T01:45:04.231Z,2.90
2023-02-14T01:47:07.288Z,2.90
2023-02-14T01:49:11.713Z,2.90
2023-02-14T01:51:14.866Z,2.90
2023-02-14T01:53:22.739Z,2.90
2023-02-14T01:55:28.290Z,2.90
2023-02-14T01:57:36.655Z,2.90
2023-02-14T01:59:41.081Z,2.90
2023-02-14T02:01:43.063Z,2.90
2023-02-14T02:03:48.246Z,2.90
2023-02-14T02:05:53.518Z,2.90
2023-02-14T02:07:57.605Z,2.90
2023-02-14T02:10:01.183Z,2.90
2023-02-14T02:12:03.672Z,3.00
2023-02-14T02:14:05.413Z,2.90
2023-02-14T02:16:21.923Z,2.90
2023-02-14T02:18:41.614Z,2.90
2023-02-14T02:21:01.721Z,2.90
2023-02-14T02:23:03.561Z,2.90
2023-02-14T02:25:08.072Z,2.90
2023-02-14T02:27:12.811Z,2.90
2023-02-14T02:29:33.048Z,2.80
2023-02-14T02:31:34.906Z,2.90
2023-02-14T02:33:48.705Z,2.90
2023-02-14T02:35:53.523Z,2.80
2023-02-14T02:38:14.044Z,2.80
2023-02-14T02:40:18.855Z,2.80
2023-02-14T02:42:25.026Z,2.80
2023-02-14T02:44:36.591Z,2.80
2023-02-14T02:46:50.085Z,2.80
2023-02-14T02:49:04.146Z,2.80
2023-02-14T02:51:25.804Z,2.80
2023-02-14T02:53:39.713Z,2.80
2023-02-14T02:56:03.080Z,2.80
2023-02-14T02:58:05.013Z,2.80
2023-02-14T03:00:07.696Z,2.80
2023-02-14T03:02:15.600Z,2.80
2023-02-14T03:04:36.915Z,2.80
2023-02-14T03:06:38.649Z,2.80
2023-02-14T03:08:40.370Z,2.80
2023-02-14T03:10:42.442Z,2.80
2023-02-14T03:12:53.374Z,2.70
2023-02-14T03:15:01.242Z,2.70
2023-02-14T03:17:02.986Z,2.70
2023-02-14T03:19:19.547Z,2.70
2023-02-14T03:21:28.410Z,2.60
2023-02-14T03:23:43.130Z,2.60
2023-02-14T03:26:03.265Z,2.60
2023-02-14T03:28:10.931Z,2.60
2023-02-14T03:30:40.406Z,2.60
2023-02-14T03:32:45.807Z,2.60
2023-02-14T03:34:57.772Z,2.60
2023-02-14T03:37:22.548Z,2.60
2023-02-14T03:39:27.969Z,2.60
2023-02-14T03:41:32.381Z,2.60
2023-02-14T03:43:36.944Z,2.60
2023-02-14T03:45:58.940Z,2.60
2023-02-14T03:48:02.331Z,2.60
2023-02-14T03:50:10.117Z,2.60
2023-02-14T03:52:12.619Z,2.60
2023-02-14T03:54:14.832Z,2.60
2023-02-14T03:56:17.744Z,2.60
2023-02-14T03:58:21.532Z,2.60
2023-02-14T04:00:23.358Z,2.70
2023-02-14T04:02:54.528Z,2.70
2023-02-14T04:04:57.300Z,2.70
2023-02-14T04:06:59.042Z,2.70
2023-02-14T04:09:00.815Z,2.70
2023-02-14T04:11:03.899Z,2.70
2023-02-14T04:13:05.735Z,2.70
2023-02-14T04:15:08.065Z,2.70
2023-02-14T04:17:28.567Z,2.70
2023-02-14T04:19:30.339Z,2.70
2023-02-14T04:21:32.097Z,2.80
2023-02-14T04:23:33.859Z,2.80
2023-02-14T04:25:35.586Z,2.80
2023-02-14T04:27:37.336Z,2.80
2023-02-14T04:29:40.371Z,2.80
2023-02-14T04:31:42.975Z,2.80
2023-02-14T04:33:46.148Z,2.80
2023-02-14T04:35:50.952Z,2.70
2023-02-14T04:37:52.803Z,2.70
2023-02-14T04:39:54.583Z,2.80
2023-02-14T04:41:56.663Z,2.80
2023-02-14T04:43:58.387Z,2.70
2023-02-14T04:46:00.191Z,2.70
2023-02-14T04:48:01.933Z,2.70
2023-02-14T04:50:03.795Z,2.70
2023-02-14T04:52:06.141Z,2.70
2023-02-14T04:54:07.858Z,2.70
2023-02-14T04:56:09.633Z,2.70
2023-02-14T04:58:12.448Z,2.70
2023-02-14T05:00:14.573Z,2.70
2023-02-14T05:02:16.389Z,2.70
2023-02-14T05:04:18.257Z,2.70
2023-02-14T05:06:20.176Z,2.70
2023-02-14T05:08:21.921Z,2.70
2023-02-14T05:10:23.691Z,2.70
2023-02-14T05:12:25.424Z,2.70
2023-02-14T05:14:27.146Z,2.60
2023-02-14T05:16:28.989Z,2.60
2023-02-14T05:18:30.757Z,2.60
2023-02-14T05:20:32.494Z,2.70
2023-02-14T05:22:34.268Z,2.70
2023-02-14T05:24:36.255Z,2.70
2023-02-14T05:26:37.998Z,2.70
2023-02-14T05:28:41.137Z,2.60
2023-02-14T05:30:43.029Z,2.60
2023-02-14T05:32:44.795Z,2.60
2023-02-14T05:34:46.561Z,2.60
2023-02-14T05:36:48.394Z,2.60
2023-02-14T05:38:50.178Z,2.60
2023-02-14T05:40:51.935Z,2.60
2023-02-14T05:42:54.148Z,2.60
2023-02-14T05:44:55.898Z,2.60
2023-02-14T05:46:57.656Z,2.60
2023-02-14T05:48:59.681Z,2.50
2023-02-14T05:51:05.765Z,2.60
2023-02-14T05:53:07.787Z,2.60
2023-02-14T05:55:09.944Z,2.60
2023-02-14T05:57:11.693Z,2.60
2023-02-14T05:59:14.679Z,2.60
2023-02-14T06:01:16.397Z,2.60
2023-02-14T06:03:18.142Z,2.60
2023-02-14T06:05:20.273Z,2.70
2023-02-14T06:07:22.007Z,2.70
2023-02-14T06:09:23.842Z,2.70
2023-02-14T06:11:25.636Z,2.70
2023-02-14T06:13:27.452Z,2.50
2023-02-14T06:15:29.318Z,2.60
2023-02-14T06:17:31.149Z,2.40
2023-02-14T06:19:32.873Z,2.50
2023-02-14T06:21:34.994Z,2.40
2023-02-14T06:23:36.766Z,2.40
2023-02-14T06:25:38.485Z,2.60
2023-02-14T06:27:40.370Z,2.60
2023-02-14T06:29:42.154Z,2.70
2023-02-14T06:31:44.166Z,2.80
2023-02-14T06:33:45.939Z,2.90
2023-02-14T06:35:47.757Z,2.90
2023-02-14T06:37:49.543Z,2.90
2023-02-14T06:39:51.358Z,2.90
2023-02-14T06:41:53.191Z,2.80
2023-02-14T06:43:54.902Z,2.80
2023-02-14T06:45:56.692Z,2.80
2023-02-14T06:48:00.037Z,3.00
2023-02-14T06:50:01.984Z,3.20
2023-02-14T06:52:04.878Z,3.10
2023-02-14T06:54:06.688Z,3.20
2023-02-14T06:56:08.454Z,3.20
2023-02-14T06:58:10.189Z,3.00
2023-02-14T07:00:12.312Z,3.20
2023-02-14T07:02:14.157Z,3.10
2023-02-14T07:04:16.039Z,3.20
2023-02-14T07:06:17.940Z,3.00
2023-02-14T07:08:20.617Z,3.10
2023-02-14T07:10:22.373Z,3.00
2023-02-14T07:12:24.123Z,3.00
2023-02-14T07:14:25.958Z,2.90
2023-02-14T07:16:27.699Z,3.00
2023-02-14T07:18:29.494Z,3.00
2023-02-14T07:20:31.200Z,3.10
2023-02-14T07:22:33.492Z,2.90
2023-02-14T07:24:35.233Z,3.00
2023-02-14T07:26:37.003Z,2.90
2023-02-14T07:28:38.807Z,3.00
2023-02-14T07:30:40.613Z,2.90
2023-02-14T07:32:42.427Z,3.00
2023-02-14T07:34:44.163Z,2.90
2023-02-14T07:36:45.994Z,3.10
2023-02-14T07:38:47.720Z,2.90
2023-02-14T07:40:49.562Z,3.00
2023-02-14T07:42:55.024Z,3.10
2023-02-14T07:44:56.771Z,3.10
2023-02-14T07:46:58.559Z,3.10
2023-02-14T07:49:00.345Z,3.00
2023-02-14T07:51:02.704Z,3.00
2023-02-14T07:53:04.774Z,3.10
2023-02-14T07:55:07.587Z,3.00
2023-02-14T07:57:09.425Z,3.20
2023-02-14T07:59:11.125Z,3.00
2023-02-14T08:01:12.929Z,3.10
2023-02-14T08:03:14.727Z,3.10
2023-02-14T08:05:16.631Z,3.20
2023-02-14T08:07:18.365Z,3.30
2023-02-14T08:09:28.920Z,3.30
2023-02-14T08:11:49.383Z,3.30
2023-02-14T08:13:51.147Z,3.30
2023-02-14T08:16:05.153Z,3.40
2023-02-14T08:18:06.952Z,3.60
2023-02-14T08:20:08.841Z,3.50
2023-02-14T08:22:10.660Z,3.40
2023-02-14T08:24:12.526Z,3.20
2023-02-14T08:26:14.414Z,3.30
2023-02-14T08:28:16.428Z,3.30
2023-02-14T08:30:18.539Z,3.30
2023-02-14T08:32:21.044Z,3.30
2023-02-14T08:34:23.025Z,3.40
2023-02-14T08:36:24.759Z,3.60
2023-02-14T08:38:26.543Z,3.60
2023-02-14T08:40:28.788Z,3.60
2023-02-14T08:42:31.105Z,3.60
2023-02-14T08:44:32.875Z,3.80
2023-02-14T08:46:34.840Z,3.90
2023-02-14T08:48:39.180Z,4.00
2023-02-14T08:50:41.233Z,4.20
2023-02-14T08:52:47.560Z,4.30
2023-02-14T08:54:49.278Z,4.30
2023-02-14T08:56:51.095Z,4.20
2023-02-14T08:58:53.536Z,4.10
2023-02-14T09:00:55.836Z,4.20
2023-02-14T09:02:57.824Z,4.20
2023-02-14T09:05:00.049Z,4.30
2023-02-14T09:07:02.124Z,4.20
2023-02-14T09:09:04.013Z,4.10
2023-02-14T09:11:09.751Z,4.10
2023-02-14T09:13:11.562Z,4.20
2023-02-14T09:15:13.357Z,4.10
2023-02-14T09:17:15.525Z,4.20
2023-02-14T09:19:17.292Z,4.20
2023-02-14T09:21:20.641Z,4.20
2023-02-14T09:23:22.356Z,4.20
2023-02-14T09:25:24.172Z,4.30
2023-02-14T09:27:25.939Z,4.40
2023-02-14T09:29:28.576Z,4.40
2023-02-14T09:31:30.850Z,4.50
2023-02-14T09:33:32.634Z,4.30
2023-02-14T09:35:46.499Z,4.40
2023-02-14T09:38:06.762Z,4.50
2023-02-14T09:40:08.876Z,4.50
2023-02-14T09:42:23.310Z,4.50
2023-02-14T09:44:27.769Z,4.60
2023-02-14T09:46:29.977Z,4.60
2023-02-14T09:48:33.647Z,4.70
2023-02-14T09:50:35.424Z,4.80
2023-02-14T09:52:37.199Z,4.70
2023-02-14T09:54:39.647Z,4.70
2023-02-14T09:56:54.031Z,4.50
2023-02-14T09:58:55.738Z,4.40
2023-02-14T10:01:01.759Z,4.20
2023-02-14T10:03:19.456Z,4.20
2023-02-14T10:05:26.644Z,4.20
2023-02-14T10:07:48.501Z,4.30
2023-02-14T10:10:00.251Z,4.40
2023-02-14T10:12:02.497Z,4.30
2023-02-14T10:14:08.751Z,4.30
2023-02-14T10:16:10.480Z,4.40
2023-02-14T10:18:12.261Z,4.50
2023-02-14T10:20:20.790Z,4.60
2023-02-14T10:22:38.799Z,4.50
2023-02-14T10:24:43.335Z,4.50
2023-02-14T10:26:46.156Z,4.50
2023-02-14T10:28:54.265Z,4.50
2023-02-14T10:31:02.791Z,4.40
2023-02-14T10:33:04.829Z,4.50
2023-02-14T10:35:14.324Z,4.60
2023-02-14T10:37:29.286Z,4.60
2023-02-14T10:39:31.018Z,4.70
2023-02-14T10:41:51.813Z,4.50
2023-02-14T10:43:53.529Z,4.60
2023-02-14T10:46:01.552Z,4.70
2023-02-14T10:48:13.500Z,4.60
2023-02-14T10:50:20.936Z,4.60
2023-02-14T10:52:22.850Z,4.50
2023-02-14T10:54:24.627Z,4.60
2023-02-14T10:56:28.140Z,4.70
2023-02-14T10:58:32.416Z,4.70
2023-02-14T11:00:43.495Z,4.70
2023-02-14T11:02:46.405Z,4.60
2023-02-14T11:04:48.288Z,4.60
2023-02-14T11:06:50.329Z,4.50
2023-02-14T11:08:52.143Z,4.50
2023-02-14T11:11:00.446Z,4.40
2023-02-14T11:13:02.418Z,4.40
2023-02-14T11:15:10.142Z,4.40
2023-02-14T11:17:26.110Z,4.40
2023-02-14T11:19:37.229Z,4.50
2023-02-14T11:21:40.311Z,4.40
2023-02-14T11:23:43.434Z,4.50
2023-02-14T11:25:49.345Z,4.50
2023-02-14T11:28:01.417Z,4.30
2023-02-14T11:30:12.427Z,4.30
2023-02-14T11:32:23.264Z,4.20
2023-02-14T11:34:33.535Z,4.20
2023-02-14T11:36:40.480Z,4.20
2023-02-14T11:38:44.023Z,4.10
2023-02-14T11:40:45.776Z,4.10
2023-02-14T11:42:51.631Z,4.10
2023-02-14T11:44:56.364Z,4.10
2023-02-14T11:47:15.781Z,4.10
2023-02-14T11:49:24.302Z,4.00
2023-02-14T11:51:34.847Z,4.00
2023-02-14T11:53:50.755Z,4.00
2023-02-14T11:55:57.608Z,4.00
2023-02-14T11:58:00.891Z,4.00
2023-02-14T12:00:04.962Z,4.00
2023-02-14T12:02:12.637Z,4.00
2023-02-14T12:04:17.658Z,4.00
2023-02-14T12:06:26.777Z,4.00
2023-02-14T12:08:30.407Z,3.90
2023-02-14T12:10:33.375Z,3.90
2023-02-14T12:12:35.768Z,3.90
2023-02-14T12:14:37.523Z,3.90
2023-02-14T12:16:44.058Z,3.90
2023-02-14T12:18:54.323Z,3.90
2023-02-14T12:20:59.380Z,3.90
2023-02-14T12:23:03.534Z,3.90
2023-02-14T12:25:11.189Z,3.80
2023-02-14T12:27:20.138Z,3.90
2023-02-14T12:29:30.882Z,4.00
2023-02-14T12:31:32.878Z,3.90
2023-02-14T12:33:35.901Z,3.90
2023-02-14T12:35:43.772Z,3.90
2023-02-14T12:38:04.427Z,3.90
2023-02-14T12:40:12.839Z,3.90
2023-02-14T12:42:20.542Z,3.90
2023-02-14T12:44:41.322Z,3.90
2023-02-14T12:46:43.020Z,3.90
2023-02-14T12:48:49.129Z,3.90
2023-02-14T12:50:59.746Z,3.90
2023-02-14T12:53:07.976Z,3.90
2023-02-14T12:55:09.820Z,3.80
2023-02-14T12:57:31.786Z,3.80
2023-02-14T12:59:38.677Z,3.80
2023-02-14T13:01:58.079Z,3.80
2023-02-14T13:04:04.134Z,3.80
2023-02-14T13:06:08.942Z,3.80
2023-02-14T13:08:35.126Z,3.80
2023-02-14T13:10:49.073Z,3.80
2023-02-14T13:12:59.725Z,3.70
2023-02-14T13:15:01.434Z,3.70
2023-02-14T13:17:12.071Z,3.80
2023-02-14T13:19:26.066Z,3.70
2023-02-14T13:21:30.700Z,3.70
2023-02-14T13:23:40.834Z,3.70
2023-02-14T13:25:49.864Z,3.70
2023-02-14T13:27:51.912Z,3.70
2023-02-14T13:29:58.933Z,3.80
2023-02-14T13:32:02.194Z,3.80
2023-02-14T13:34:08.412Z,3.70
2023-02-14T13:36:13.420Z,3.80
2023-02-14T13:38:16.770Z,3.80
2023-02-14T13:40:20.629Z,3.70
2023-02-14T13:42:41.192Z,3.70
2023-02-14T13:44:50.399Z,3.70
2023-02-14T13:46:52.578Z,3.70
2023-02-14T13:49:00.407Z,3.70
2023-02-14T13:51:02.440Z,3.70
2023-02-14T13:53:04.420Z,3.70
2023-02-14T13:55:08.299Z,3.70
2023-02-14T13:57:45.330Z,3.70
2023-02-14T13:59:47.120Z,3.60
2023-02-14T14:01:50.275Z,3.60
2023-02-14T14:03:53.718Z,3.50
2023-02-14T14:06:00.716Z,3.50
2023-02-14T14:08:17.904Z,3.50
2023-02-14T14:10:39.583Z,3.50
2023-02-14T14:12:41.750Z,3.40
2023-02-14T14:14:43.599Z,3.40
2023-02-14T14:16:56.763Z,3.40
2023-02-14T14:19:01.277Z,3.30
2023-02-14T14:21:14.393Z,3.30
2023-02-14T14:23:28.105Z,3.20
2023-02-14T14:25:39.916Z,3.10
2023-02-14T14:27:42.634Z,3.10
2023-02-14T14:29:48.689Z,3.10
2023-02-14T14:31:55.829Z,3.10
2023-02-14T14:33:59.037Z,3.30
2023-02-14T14:36:08.859Z,3.20
2023-02-14T14:38:13.402Z,3.10
2023-02-14T14:40:35.446Z,3.00
2023-02-14T14:42:39.201Z,3.00
2023-02-14T14:44:47.105Z,3.00
2023-02-14T14:46:48.901Z,3.10
2023-02-14T14:48:54.370Z,3.10
2023-02-14T14:50:57.194Z,3.10
2023-02-14T14:53:11.807Z,3.10
2023-02-14T14:55:33.068Z,3.10
2023-02-14T14:57:36.459Z,3.10
2023-02-14T14:59:39.654Z,3.00
2023-02-14T15:01:41.567Z,3.10
2023-02-14T15:03:43.349Z,3.10
2023-02-14T15:05:46.188Z,3.10
2023-02-14T15:07:47.957Z,3.10
2023-02-14T15:09:49.844Z,3.00
2023-02-14T15:12:10.737Z,3.00
2023-02-14T15:14:21.133Z,3.10
2023-02-14T15:16:27.522Z,3.00
2023-02-14T15:18:29.372Z,3.00
2023-02-14T15:20:31.141Z,3.00
2023-02-14T15:22:36.299Z,3.00
2023-02-14T15:24:38.325Z,3.10
2023-02-14T15:26:42.790Z,3.00
2023-02-14T15:28:44.739Z,3.00
2023-02-14T15:30:55.067Z,3.00
2023-02-14T15:32:57.510Z,3.00
2023-02-14T15:35:01.067Z,3.00
2023-02-14T15:37:06.329Z,2.90
2023-02-14T15:39:09.687Z,3.00
2023-02-14T15:41:13.011Z,3.00
2023-02-14T15:43:22.072Z,3.00
2023-02-14T15:45:27.827Z,2.90
2023-02-14T15:47:29.663Z,3.00
2023-02-14T15:49:38.432Z,2.90
2023-02-14T15:51:41.415Z,2.80
2023-02-14T15:53:51.370Z,2.90
2023-02-14T15:55:54.334Z,2.90
2023-02-14T15:58:02.408Z,2.80
2023-02-14T16:00:06.883Z,2.80
2023-02-14T16:02:28.722Z,2.80
2023-02-14T16:04:31.936Z,2.80
2023-02-14T16:06:33.670Z,2.80
2023-02-14T16:08:39.833Z,2.80
2023-02-14T16:10:41.727Z,2.80
2023-02-14T16:12:53.102Z,2.70
2023-02-14T16:15:02.696Z,2.70
2023-02-14T16:17:13.696Z,2.70
2023-02-14T16:19:31.275Z,2.70
2023-02-14T16:21:33.091Z,2.70
2023-02-14T16:23:36.947Z,2.70
2023-02-14T16:25:40.340Z,2.70
2023-02-14T16:27:42.508Z,2.70
2023-02-14T16:29:44.335Z,2.70
2023-02-14T16:32:14.160Z,2.70
2023-02-14T16:34:11.676Z,2.70
2023-02-14T16:36:13.378Z,2.70
2023-02-14T16:38:16.859Z,2.70
2023-02-14T16:40:20.139Z,2.60
2023-02-14T16:42:21.953Z,2.60
2023-02-14T16:44:23.753Z,2.60
2023-02-14T16:46:28.528Z,2.60
2023-02-14T16:48:30.332Z,2.60
2023-02-14T16:50:33.140Z,2.50
2023-02-14T16:52:35.314Z,2.60
2023-02-14T16:54:37.069Z,2.50
2023-02-14T16:56:42.484Z,2.50
2023-02-14T16:58:44.351Z,2.50
2023-02-14T17:00:46.139Z,2.50
2023-02-14T17:02:47.999Z,2.50
2023-02-14T17:04:49.838Z,2.40
2023-02-14T17:06:53.170Z,2.50
2023-02-14T17:08:56.355Z,2.50
2023-02-14T17:10:58.496Z,2.50
2023-02-14T17:13:02.152Z,2.50
2023-02-14T17:15:07.238Z,2.40
2023-02-14T17:17:09.626Z,2.40
2023-02-14T17:19:11.885Z,2.40
2023-02-14T17:21:14.305Z,2.40
2023-02-14T17:23:15.997Z,2.40
2023-02-14T17:25:18.932Z,2.50
2023-02-14T17:27:20.731Z,2.50
2023-02-14T17:29:22.439Z,2.40
2023-02-14T17:31:24.817Z,2.40
2023-02-14T17:33:26.703Z,2.40
2023-02-14T17:35:28.484Z,2.40
2023-02-14T17:37:31.200Z,2.40
2023-02-14T17:39:32.966Z,2.40
2023-02-14T17:41:34.712Z,2.40
2023-02-14T17:43:36.419Z,2.40
2023-02-14T17:45:38.188Z,2.30
2023-02-14T17:47:43.189Z,2.30
2023-02-14T17:49:47.452Z,2.30
2023-02-14T17:51:49.296Z,2.30
2023-02-14T17:53:51.381Z,2.40
2023-02-14T17:55:53.117Z,2.40
2023-02-14T17:57:55.152Z,2.40
2023-02-14T17:59:58.516Z,2.40
2023-02-14T18:02:00.375Z,2.40
2023-02-14T18:04:02.651Z,2.40
2023-02-14T18:06:04.905Z,2.40
2023-02-14T18:08:06.675Z,2.30
2023-02-14T18:10:08.767Z,2.30
2023-02-14T18:12:14.821Z,2.20
2023-02-14T18:14:16.948Z,2.20
2023-02-14T18:16:19.135Z,2.20
2023-02-14T18:18:20.880Z,2.20
2023-02-14T18:20:22.585Z,2.10
2023-02-14T18:22:25.012Z,2.10
2023-02-14T18:24:26.814Z,2.10
2023-02-14T18:26:28.775Z,2.00
2023-02-14T18:28:31.035Z,2.10
2023-02-14T18:30:32.807Z,2.10
2023-02-14T18:32:34.584Z,2.00
2023-02-14T18:34:40.159Z,2.00
2023-02-14T18:36:42.191Z,2.00
2023-02-14T18:38:45.002Z,2.10
2023-02-14T18:40:47.867Z,2.10
2023-02-14T18:42:49.737Z,2.10
2023-02-14T18:44:51.609Z,2.10
2023-02-14T18:46:53.629Z,2.10
2023-02-14T18:48:56.849Z,2.10
2023-02-14T18:51:13.383Z,2.10
2023-02-14T18:53:15.301Z,2.10
2023-02-14T18:55:17.282Z,2.10
2023-02-14T18:57:19.329Z,2.10
2023-02-14T18:59:21.222Z,2.10
2023-02-14T19:01:24.438Z,2.10
2023-02-14T19:03:26.263Z,2.10
2023-02-14T19:05:28.280Z,2.10
2023-02-14T19:07:30.335Z,2.10
2023-02-14T19:09:38.881Z,2.10
2023-02-14T19:11:40.697Z,2.20
2023-02-14T19:13:48.776Z,2.20
2023-02-14T19:15:51.186Z,2.20
2023-02-14T19:17:54.366Z,2.20
2023-02-14T19:19:56.208Z,2.20
2023-02-14T19:21:58.951Z,2.20
2023-02-14T19:24:02.342Z,2.20
2023-02-14T19:26:11.060Z,2.20
2023-02-14T19:28:12.989Z,2.20
2023-02-14T19:30:16.038Z,2.20
2023-02-14T19:32:17.811Z,2.20
2023-02-14T19:34:21.525Z,2.20
2023-02-14T19:36:23.619Z,2.20
2023-02-14T19:38:25.525Z,2.20
2023-02-14T19:40:27.329Z,2.20
2023-02-14T19:42:29.297Z,2.20
2023-02-14T19:44:32.436Z,2.20
2023-02-14T19:46:34.856Z,2.20
2023-02-14T19:48:36.843Z,2.20
2023-02-14T19:50:39.323Z,2.20
2023-02-14T19:52:41.799Z,2.20
2023-02-14T19:54:44.763Z,2.20
2023-02-14T19:56:47.050Z,2.10
2023-02-14T19:58:49.893Z,2.20
2023-02-14T20:00:59.072Z,2.10
2023-02-14T20:03:01.829Z,2.10
2023-02-14T20:05:04.442Z,2.10
2023-02-14T20:07:06.237Z,2.20
2023-02-14T20:09:09.032Z,2.10
2023-02-14T20:11:22.454Z,2.10
2023-02-14T20:13:24.199Z,2.10
2023-02-14T20:15:28.037Z,2.10
2023-02-14T20:17:29.980Z,2.20
2023-02-14T20:19:33.139Z,2.20
2023-02-14T20:21:35.221Z,2.10
2023-02-14T20:23:36.949Z,2.10
2023-02-14T20:25:39.783Z,2.10
2023-02-14T20:27:41.779Z,2.10
2023-02-14T20:29:45.110Z,2.10
2023-02-14T20:31:51.375Z,2.10
2023-02-14T20:33:53.390Z,2.00
2023-02-14T20:35:55.177Z,2.10
2023-02-14T20:37:57.521Z,2.00
2023-02-14T20:40:00.171Z,2.00
2023-02-14T20:42:01.942Z,2.00
2023-02-14T20:44:04.850Z,2.10
2023-02-14T20:46:06.966Z,2.10
2023-02-14T20:48:09.415Z,2.00
2023-02-14T20:50:12.278Z,2.10
2023-02-14T20:52:15.514Z,2.10
2023-02-14T20:54:18.327Z,2.10
2023-02-14T20:56:20.742Z,2.00
2023-02-14T20:58:22.506Z,2.00
2023-02-14T21:00:25.740Z,2.00
2023-02-14T21:02:27.505Z,2.00
2023-02-14T21:04:29.581Z,2.00
2023-02-14T21:06:34.299Z,2.00
2023-02-14T21:08:36.436Z,2.00
2023-02-14T21:10:38.252Z,2.00
2023-02-14T21:12:39.948Z,2.00
2023-02-14T21:14:41.783Z,2.00
2023-02-14T21:16:43.836Z,1.90
2023-02-14T21:18:48.800Z,1.80
2023-02-14T21:20:51.306Z,1.90
2023-02-14T21:22:56.043Z,1.90
2023-02-14T21:24:57.880Z,1.90
2023-02-14T21:27:00.167Z,1.90
2023-02-14T21:29:02.317Z,1.90
2023-02-14T21:31:04.605Z,1.90
2023-02-14T21:33:06.640Z,1.90
2023-02-14T21:35:08.513Z,2.00
2023-02-14T21:37:11.199Z,1.90
2023-02-14T21:39:13.173Z,2.00
2023-02-14T21:41:16.661Z,2.00
2023-02-14T21:43:18.754Z,1.90
2023-02-14T21:45:39.093Z,2.00
2023-02-14T21:47:40.955Z,1.90
2023-02-14T21:50:02.683Z,2.00
2023-02-14T21:52:04.565Z,2.00
2023-02-14T21:54:06.940Z,2.00
2023-02-14T21:56:10.561Z,2.10
2023-02-14T21:58:12.832Z,2.10
2023-02-14T22:00:14.977Z,2.20
2023-02-14T22:02:16.815Z,2.10
2023-02-14T22:04:18.678Z,2.10
2023-02-14T22:06:20.531Z,2.00
2023-02-14T22:08:22.242Z,2.20
2023-02-14T22:10:24.017Z,2.00
2023-02-14T22:12:25.953Z,2.00
2023-02-14T22:14:29.330Z,2.10
2023-02-14T22:16:31.568Z,2.10
2023-02-14T22:18:33.515Z,2.00
2023-02-14T22:20:35.232Z,2.00
2023-02-14T22:22:36.997Z,2.00
2023-02-14T22:24:38.729Z,2.00
2023-02-14T22:26:40.963Z,2.00
2023-02-14T22:28:43.738Z,2.00
2023-02-14T22:30:45.536Z,2.00
2023-02-14T22:32:47.282Z,2.00
2023-02-14T22:34:49.216Z,1.90
2023-02-14T22:36:51.237Z,1.90
2023-02-14T22:38:52.929Z,1.90
2023-02-14T22:40:55.081Z,1.90
2023-02-14T22:42:58.058Z,2.00
2023-02-14T22:44:59.782Z,1.90
2023-02-14T22:47:01.558Z,1.90
2023-02-14T22:49:03.923Z,1.90
2023-02-14T22:51:20.263Z,1.90
2023-02-14T22:53:22.001Z,1.80
2023-02-14T22:55:23.718Z,1.90
2023-02-14T22:57:25.765Z,1.90
2023-02-14T22:59:28.594Z,1.80
2023-02-14T23:01:30.555Z,1.80
2023-02-14T23:03:32.532Z,1.80
2023-02-14T23:05:34.301Z,1.70
2023-02-14T23:07:37.994Z,1.70
2023-02-14T23:09:40.215Z,1.70
2023-02-14T23:11:42.991Z,1.70
2023-02-14T23:14:03.636Z,1.70
2023-02-14T23:16:23.798Z,1.70
2023-02-14T23:18:44.571Z,1.70
2023-02-14T23:21:04.713Z,1.60
2023-02-14T23:23:06.437Z,1.60
2023-02-14T23:25:10.109Z,1.60
2023-02-14T23:27:11.857Z,1.60
2023-02-14T23:29:13.659Z,1.60
2023-02-14T23:31:15.497Z,1.60
2023-02-14T23:33:17.214Z,1.60
2023-02-14T23:35:18.971Z,1.60
2023-02-14T23:37:20.736Z,1.60
2023-02-14T23:39:22.572Z,1.60
2023-02-14T23:41:42.659Z,1.60
2023-02-14T23:43:44.457Z,1.60
2023-02-14T23:45:46.205Z,1.60
2023-02-14T23:47:48.007Z,1.60
2023-02-14T23:49:49.785Z,1.60
2023-02-14T23:51:52.312Z,1.60
2023-02-14T23:53:54.700Z,1.50
2023-02-14T23:56:00.529Z,1.60
2023-02-14T23:58:02.478Z,1.60
